Time;durP1;ratioP1;P1;durP2;ratioP2;P2;SDS_P1;SDS_P2;PMS_P1;PMS_P2;Temp;Humidity;BMP_temperature;BMP_pressure;BME280_temperature;BME280_humidity;BME280_pressure;Samples;Min_cycle;Max_cycle;Signal;HPM_P1;HPM_P2
2024/03/30 00:01:02;;;;;;;11.65;5.63;;;;;;;;;;5075066;28;20111;-69
2024/03/30 00:03:28;;;;;;;9.57;5.18;;;;;;;;;;5074739;28;20070;-70
2024/03/30 00:06:02;;;;;;;9.18;5.32;;;;;;;;;;5076101;28;20048;-69
2024/03/30 00:08:28;;;;;;;9.73;5.25;;;;;;;;;;5076428;28;20089;-71
2024/03/30 00:11:01;;;;;;;10.35;5.57;;;;;;;;;;5075514;28;20098;-70
2024/03/30 00:13:27;;;;;;;8.20;5.15;;;;;;;;;;5075942;28;20477;-68
2024/03/30 00:15:52;;;;;;;10.13;5.40;;;;;;;;;;5074828;28;20400;-68
2024/03/30 00:18:18;;;;;;;10.35;4.82;;;;;;;;;;5075829;28;20026;-69
2024/03/30 00:20:45;;;;;;;8.27;4.85;;;;;;;;;;5072452;28;20024;-69
2024/03/30 00:23:10;;;;;;;7.50;4.07;;;;;;;;;;5072765;28;20654;-69
2024/03/30 00:25:36;;;;;;;12.00;4.63;;;;;;;;;;5073015;28;20039;-69
2024/03/30 00:28:01;;;;;;;11.88;4.30;;;;;;;;;;5071364;28;20383;-71
2024/03/30 00:30:29;;;;;;;13.55;4.65;;;;;;;;;;5071511;28;20027;-69
2024/03/30 00:32:54;;;;;;;12.55;5.05;;;;;;;;;;5072942;28;20541;-68
2024/03/30 00:35:20;;;;;;;8.95;5.63;;;;;;;;;;5072904;28;20032;-68
2024/03/30 00:37:47;;;;;;;12.77;4.47;;;;;;;;;;5071622;28;20077;-70
2024/03/30 00:40:13;;;;;;;10.07;4.47;;;;;;;;;;5071207;28;20092;-68
2024/03/30 00:42:38;;;;;;;14.05;4.72;;;;;;;;;;5072796;28;20407;-69
2024/03/30 00:45:04;;;;;;;9.25;4.65;;;;;;;;;;5072501;28;20314;-69
2024/03/30 00:47:30;;;;;;;8.38;4.78;;;;;;;;;;5077889;28;20016;-69
2024/03/30 00:49:56;;;;;;;9.55;4.40;;;;;;;;;;5092559;28;20088;-70
2024/03/30 00:52:22;;;;;;;9.73;4.75;;;;;;;;;;5074198;28;20081;-68
2024/03/30 00:54:48;;;;;;;9.20;4.18;;;;;;;;;;5092624;28;20028;-70
2024/03/30 00:57:13;;;;;;;10.48;4.35;;;;;;;;;;5092231;28;20031;-68
2024/03/30 00:59:41;;;;;;;10.27;4.80;;;;;;;;;;5074097;28;20057;-70
2024/03/30 01:02:06;;;;;;;10.98;4.63;;;;;;;;;;5092289;28;20024;-69
2024/03/30 01:04:34;;;;;;;11.30;4.55;;;;;;;;;;5074487;28;20080;-70
2024/03/30 01:07:01;;;;;;;10.68;5.13;;;;;;;;;;5074103;28;20554;-70
2024/03/30 01:09:27;;;;;;;10.63;4.85;;;;;;;;;;5074169;28;20460;-69
2024/03/30 01:11:53;;;;;;;10.80;5.47;;;;;;;;;;5092389;28;20034;-71
2024/03/30 01:14:21;;;;;;;9.23;4.80;;;;;;;;;;5073943;28;20063;-70
2024/03/30 01:16:47;;;;;;;9.80;4.65;;;;;;;;;;5074192;28;20021;-68
2024/03/30 01:19:13;;;;;;;13.38;4.60;;;;;;;;;;5073599;28;20035;-70
2024/03/30 01:21:38;;;;;;;13.10;4.40;;;;;;;;;;5074292;28;20030;-68
2024/03/30 01:24:04;;;;;;;9.25;4.03;;;;;;;;;;5073796;28;20544;-71
2024/03/30 01:26:31;;;;;;;11.52;4.60;;;;;;;;;;5074686;28;20024;-68
2024/03/30 01:29:02;;;;;;;12.45;4.60;;;;;;;;;;5094063;28;20043;-69
2024/03/30 01:31:28;;;;;;;9.15;4.68;;;;;;;;;;5075918;28;20093;-69
2024/03/30 01:33:54;;;;;;;11.18;4.97;;;;;;;;;;5093579;28;20028;-70
2024/03/30 01:36:19;;;;;;;11.30;4.78;;;;;;;;;;5094605;28;20500;-70
2024/03/30 01:38:45;;;;;;;10.35;4.32;;;;;;;;;;5077148;28;20507;-69
2024/03/30 01:41:10;;;;;;;7.97;4.32;;;;;;;;;;5076666;28;20058;-69
2024/03/30 01:43:36;;;;;;;8.38;4.28;;;;;;;;;;5093902;28;20046;-69
2024/03/30 01:46:01;;;;;;;10.32;5.18;;;;;;;;;;5076322;28;20077;-68
2024/03/30 01:48:27;;;;;;;16.73;5.70;;;;;;;;;;5093188;28;20507;-68
2024/03/30 01:50:53;;;;;;;14.90;5.93;;;;;;;;;;5073816;28;20032;-68
2024/03/30 01:53:25;;;;;;;10.45;4.78;;;;;;;;;;5073368;28;20063;-70
2024/03/30 01:55:51;;;;;;;;;;;;;;;;;;5074023;28;20024;-69
2024/03/30 01:58:22;;;;;;;10.70;4.60;;;;;;;;;;5091470;28;20002;-71
2024/03/30 02:00:48;;;;;;;9.15;4.38;;;;;;;;;;5073209;28;20031;-70
2024/03/30 02:03:15;;;;;;;8.77;4.22;;;;;;;;;;5073139;28;20035;-70
2024/03/30 02:05:41;;;;;;;11.82;5.00;;;;;;;;;;5073588;28;20024;-69
2024/03/30 02:08:10;;;;;;;11.13;4.68;;;;;;;;;;5073214;28;20368;-68
2024/03/30 02:10:37;;;;;;;11.00;4.50;;;;;;;;;;5092674;28;20092;-69
2024/03/30 02:13:04;;;;;;;11.80;4.90;;;;;;;;;;5093321;28;20028;-70
2024/03/30 02:15:31;;;;;;;9.57;5.28;;;;;;;;;;5093786;28;20023;-69
2024/03/30 02:17:57;;;;;;;10.10;5.25;;;;;;;;;;5075015;28;20034;-70
2024/03/30 02:20:22;;;;;;;19.63;6.22;;;;;;;;;;5072648;28;20024;-70
2024/03/30 02:22:50;;;;;;;16.95;6.55;;;;;;;;;;5090667;28;20391;-69
2024/03/30 02:25:16;;;;;;;14.30;5.78;;;;;;;;;;5072076;28;20035;-70
2024/03/30 02:27:42;;;;;;;20.40;6.90;;;;;;;;;;5072517;28;20383;-68
2024/03/30 02:30:09;;;;;;;13.77;5.93;;;;;;;;;;5090388;28;20031;-70
2024/03/30 02:32:35;;;;;;;16.75;6.18;;;;;;;;;;5072821;28;20028;-69
2024/03/30 02:35:01;;;;;;;13.25;6.15;;;;;;;;;;5091005;28;20031;-70
2024/03/30 02:37:26;;;;;;;14.93;6.25;;;;;;;;;;5090477;28;20024;-70
2024/03/30 02:39:52;;;;;;;15.35;6.20;;;;;;;;;;5090452;28;20028;-70
2024/03/30 02:42:18;;;;;;;17.33;6.60;;;;;;;;;;5055556;28;20032;-70
2024/03/30 02:44:43;;;;;;;15.70;6.35;;;;;;;;;;5090222;28;20024;-69
2024/03/30 02:47:09;;;;;;;17.17;6.10;;;;;;;;;;5090459;28;20024;-70
2024/03/30 02:49:34;;;;;;;15.98;5.78;;;;;;;;;;5072221;28;20031;-69
2024/03/30 02:52:00;;;;;;;14.18;6.00;;;;;;;;;;5072711;28;20024;-68
2024/03/30 02:54:25;;;;;;;12.23;5.85;;;;;;;;;;5072429;28;20123;-71
2024/03/30 02:56:51;;;;;;;18.98;6.45;;;;;;;;;;5073464;28;20028;-68
2024/03/30 02:59:16;;;;;;;18.15;5.90;;;;;;;;;;5074774;28;20031;-69
2024/03/30 03:01:42;;;;;;;12.10;5.88;;;;;;;;;;5074752;28;20031;-70
2024/03/30 03:04:08;;;;;;;14.43;5.95;;;;;;;;;;5075475;28;20024;-70
2024/03/30 03:06:33;;;;;;;13.57;5.90;;;;;;;;;;5075722;28;20031;-69
2024/03/30 03:08:59;;;;;;;15.27;5.57;;;;;;;;;;5093129;28;20028;-68
2024/03/30 03:11:25;;;;;;;15.73;6.25;;;;;;;;;;5072586;28;20039;-70
2024/03/30 03:13:51;;;;;;;13.68;6.05;;;;;;;;;;5091002;28;20095;-68
2024/03/30 03:16:17;;;;;;;14.27;6.20;;;;;;;;;;5090384;28;20111;-71
2024/03/30 03:18:42;;;;;;;18.38;5.68;;;;;;;;;;5072111;28;20071;-69
2024/03/30 03:21:08;;;;;;;12.63;5.93;;;;;;;;;;5071875;28;20024;-70
2024/03/30 03:23:33;;;;;;;10.32;5.13;;;;;;;;;;5072084;28;20110;-70
2024/03/30 03:25:59;;;;;;;13.52;5.30;;;;;;;;;;5090129;28;20019;-69
2024/03/30 03:28:25;;;;;;;8.55;4.72;;;;;;;;;;5090074;28;20742;-69
2024/03/30 03:30:51;;;;;;;10.85;4.70;;;;;;;;;;5055251;28;20034;-69
2024/03/30 03:33:16;;;;;;;11.10;5.47;;;;;;;;;;5071546;28;20032;-69
2024/03/30 03:35:42;;;;;;;9.25;4.95;;;;;;;;;;5090050;28;20527;-69
2024/03/30 03:38:08;;;;;;;14.32;5.43;;;;;;;;;;5071707;28;20028;-71
2024/03/30 03:40:34;;;;;;;11.82;5.85;;;;;;;;;;5055282;28;20123;-68
2024/03/30 03:43:00;;;;;;;10.45;4.78;;;;;;;;;;5071915;28;20115;-68
2024/03/30 03:45:25;;;;;;;11.60;4.90;;;;;;;;;;5071475;28;20024;-69
2024/03/30 03:47:52;;;;;;;7.20;4.55;;;;;;;;;;5089979;28;20063;-70
2024/03/30 03:50:17;;;;;;;15.40;5.85;;;;;;;;;;5089741;28;20024;-70
2024/03/30 03:52:43;;;;;;;11.50;5.25;;;;;;;;;;5071686;28;20564;-69
2024/03/30 03:55:08;;;;;;;12.13;5.05;;;;;;;;;;5090014;28;20024;-69
2024/03/30 03:57:34;;;;;;;14.50;5.25;;;;;;;;;;5075480;28;20480;-72
2024/03/30 03:59:59;;;;;;;11.05;5.20;;;;;;;;;;5075325;28;20590;-69
2024/03/30 04:02:25;;;;;;;15.70;5.22;;;;;;;;;;5075342;28;20077;-69
2024/03/30 04:04:52;;;;;;;8.75;4.68;;;;;;;;;;5075378;28;20074;-70
2024/03/30 04:07:17;;;;;;;13.25;5.00;;;;;;;;;;5074892;28;20047;-70
2024/03/30 04:09:44;;;;;;;8.45;5.20;;;;;;;;;;5093382;28;20445;-68
2024/03/30 04:12:09;;;;;;;12.75;4.90;;;;;;;;;;5074786;28;20024;-69
2024/03/30 04:14:35;;;;;;;9.20;4.80;;;;;;;;;;5093192;28;20020;-70
2024/03/30 04:17:02;;;;;;;12.57;5.70;;;;;;;;;;5093296;28;20020;-70
2024/03/30 04:19:27;;;;;;;8.23;4.38;;;;;;;;;;5093283;28;20073;-71
2024/03/30 04:21:56;;;;;;;10.57;5.20;;;;;;;;;;5093368;28;20024;-72
2024/03/30 04:24:22;;;;;;;10.40;5.20;;;;;;;;;;5074923;28;20134;-70
2024/03/30 04:26:48;;;;;;;16.05;5.68;;;;;;;;;;5093439;28;20055;-70
2024/03/30 04:29:13;;;;;;;15.43;6.70;;;;;;;;;;5093161;28;20059;-69
2024/03/30 04:31:39;;;;;;;9.73;4.47;;;;;;;;;;5074851;28;20028;-71
2024/03/30 04:34:04;;;;;;;13.20;5.18;;;;;;;;;;5093205;28;20714;-69
2024/03/30 04:36:30;;;;;;;16.52;4.95;;;;;;;;;;5092730;28;20028;-69
2024/03/30 04:38:56;;;;;;;10.32;5.35;;;;;;;;;;5093063;28;20103;-69
2024/03/30 04:41:21;;;;;;;13.63;4.93;;;;;;;;;;5074463;28;20097;-68
2024/03/30 04:43:47;;;;;;;10.88;4.88;;;;;;;;;;5074848;28;20051;-69
2024/03/30 04:46:12;;;;;;;10.57;5.80;;;;;;;;;;5092786;28;20085;-70
2024/03/30 04:48:38;;;;;;;11.52;5.20;;;;;;;;;;5074565;28;20529;-70
2024/03/30 04:51:04;;;;;;;13.13;5.35;;;;;;;;;;5092568;28;20119;-71
2024/03/30 04:53:32;;;;;;;15.32;4.93;;;;;;;;;;5074732;28;20115;-70
2024/03/30 04:56:04;;;;;;;11.50;5.45;;;;;;;;;;5092616;28;20531;-70
2024/03/30 04:58:31;;;;;;;13.63;5.10;;;;;;;;;;5074272;28;20032;-70
2024/03/30 05:01:02;;;;;;;11.85;5.45;;;;;;;;;;5074289;28;20417;-68
2024/03/30 05:03:28;;;;;;;13.95;5.22;;;;;;;;;;5092332;28;20129;-70
2024/03/30 05:05:53;;;;;;;15.38;5.40;;;;;;;;;;5074203;28;20116;-71
2024/03/30 05:08:19;;;;;;;13.55;5.65;;;;;;;;;;5073367;28;20031;-70
2024/03/30 05:10:45;;;;;;;15.55;5.50;;;;;;;;;;5074220;28;20476;-68
2024/03/30 05:13:11;;;;;;;14.73;5.40;;;;;;;;;;5091931;28;20028;-76
2024/03/30 05:15:42;;;;;;;9.27;4.20;;;;;;;;;;5092038;28;20084;-69
2024/03/30 05:18:12;;;;;;;13.80;5.55;;;;;;;;;;5073982;28;20503;-71
2024/03/30 05:20:53;;;;;;;9.10;4.63;;;;;;;;;;5092330;28;20031;-70
2024/03/30 05:23:22;;;;;;;11.90;4.80;;;;;;;;;;5092313;28;20054;-69
2024/03/30 05:25:49;;;;;;;12.50;6.05;;;;;;;;;;5092019;28;20048;-68
2024/03/30 05:28:17;;;;;;;11.10;5.80;;;;;;;;;;5092201;28;20435;-68
2024/03/30 05:30:43;;;;;;;15.60;6.10;;;;;;;;;;5073791;28;20039;-69
2024/03/30 05:33:10;;;;;;;17.50;5.32;;;;;;;;;;5091479;28;20036;-70
2024/03/30 05:35:36;;;;;;;10.32;4.90;;;;;;;;;;5073190;28;20679;-70
2024/03/30 05:38:03;;;;;;;9.63;4.97;;;;;;;;;;5091953;28;20039;-71
2024/03/30 05:40:32;;;;;;;10.25;4.78;;;;;;;;;;5056876;28;20040;-68
2024/03/30 05:42:58;;;;;;;9.98;4.50;;;;;;;;;;5074263;28;20105;-70
2024/03/30 05:45:24;;;;;;;8.77;4.82;;;;;;;;;;5073806;28;20408;-69
2024/03/30 05:47:49;;;;;;;16.02;5.20;;;;;;;;;;5091683;28;20028;-70
2024/03/30 05:50:15;;;;;;;11.15;8.23;;;;;;;;;;5091800;28;20052;-69
2024/03/30 05:52:40;;;;;;;12.25;5.72;;;;;;;;;;5091797;28;20020;-70
2024/03/30 05:55:06;;;;;;;13.27;4.88;;;;;;;;;;5092491;28;20085;-69
2024/03/30 05:57:32;;;;;;;17.17;5.55;;;;;;;;;;5074097;28;20028;-70
2024/03/30 05:59:58;;;;;;;12.75;5.00;;;;;;;;;;5073922;28;20119;-72
2024/03/30 06:02:25;;;;;;;10.27;4.78;;;;;;;;;;5073728;28;20073;-71
2024/03/30 06:04:51;;;;;;;15.57;5.20;;;;;;;;;;5073667;28;20058;-72
2024/03/30 06:07:16;;;;;;;10.57;5.07;;;;;;;;;;5091338;28;20020;-69
2024/03/30 06:09:42;;;;;;;10.50;4.95;;;;;;;;;;5072574;28;20456;-71
2024/03/30 06:12:07;;;;;;;9.75;4.47;;;;;;;;;;5067969;28;20024;-70
2024/03/30 06:14:35;;;;;;;12.07;5.18;;;;;;;;;;5069395;28;20048;-69
2024/03/30 06:17:01;;;;;;;10.80;4.65;;;;;;;;;;5069520;28;20029;-69
2024/03/30 06:19:27;;;;;;;11.70;4.65;;;;;;;;;;5069849;28;20025;-69
2024/03/30 06:21:53;;;;;;;17.42;6.28;;;;;;;;;;5069411;28;20028;-69
2024/03/30 06:24:18;;;;;;;27.92;14.15;;;;;;;;;;5071016;28;20428;-70
2024/03/30 06:26:44;;;;;;;13.30;5.75;;;;;;;;;;5070806;28;20032;-69
2024/03/30 06:29:10;;;;;;;19.80;5.95;;;;;;;;;;5069225;28;20034;-69
2024/03/30 06:31:38;;;;;;;12.73;4.85;;;;;;;;;;5070698;28;20040;-69
2024/03/30 06:34:05;;;;;;;13.82;5.28;;;;;;;;;;5070519;28;20377;-71
2024/03/30 06:36:34;;;;;;;17.02;4.97;;;;;;;;;;5070222;28;20025;-70
2024/03/30 06:39:00;;;;;;;12.90;5.38;;;;;;;;;;5070534;28;20402;-68
2024/03/30 06:44:10;;;;;;;13.57;5.32;;;;;;;;;;5070862;28;20081;-72
2024/03/30 06:46:36;;;;;;;9.30;5.20;;;;;;;;;;5070259;28;20440;-69
2024/03/30 06:49:01;;;;;;;11.27;4.78;;;;;;;;;;5072307;28;20027;-70
2024/03/30 06:51:27;;;;;;;20.40;6.38;;;;;;;;;;5072258;28;20462;-70
2024/03/30 06:53:52;;;;;;;23.98;7.50;;;;;;;;;;5072466;28;20031;-70
2024/03/30 06:56:18;;;;;;;11.57;5.07;;;;;;;;;;5072234;28;20092;-71
2024/03/30 06:58:43;;;;;;;16.55;5.13;;;;;;;;;;5090301;28;20388;-69
2024/03/30 07:01:09;;;;;;;16.38;6.03;;;;;;;;;;5090665;28;20028;-71
2024/03/30 07:03:35;;;;;;;14.38;5.20;;;;;;;;;;5071834;28;20035;-68
2024/03/30 07:06:00;;;;;;;9.93;4.20;;;;;;;;;;5072299;28;20020;-69
2024/03/30 07:08:26;;;;;;;14.52;4.13;;;;;;;;;;5090556;28;20084;-69
2024/03/30 07:10:51;;;;;;;15.93;5.10;;;;;;;;;;5072533;28;20115;-69
2024/03/30 07:13:17;;;;;;;16.10;5.10;;;;;;;;;;5090723;28;20023;-71
2024/03/30 07:15:42;;;;;;;10.30;4.50;;;;;;;;;;5070994;28;20025;-69
2024/03/30 07:18:08;;;;;;;12.50;5.47;;;;;;;;;;5072289;28;20067;-68
2024/03/30 07:20:33;;;;;;;12.77;4.88;;;;;;;;;;5071328;28;20104;-69
2024/03/30 07:22:59;;;;;;;14.25;4.85;;;;;;;;;;5072722;28;20104;-69
2024/03/30 07:25:25;;;;;;;13.15;4.22;;;;;;;;;;5071124;28;20020;-68
2024/03/30 07:27:51;;;;;;;10.63;3.85;;;;;;;;;;5070907;28;20494;-69
2024/03/30 07:30:17;;;;;;;21.85;4.80;;;;;;;;;;5069976;28;20029;-70
2024/03/30 07:32:42;;;;;;;14.77;3.75;;;;;;;;;;5073221;28;20060;-70
2024/03/30 07:35:08;;;;;;;16.45;3.78;;;;;;;;;;5074326;28;20033;-71
2024/03/30 07:37:33;;;;;;;21.98;5.97;;;;;;;;;;5072620;28;20020;-70
2024/03/30 07:39:59;;;;;;;20.10;5.40;;;;;;;;;;5072938;28;20441;-70
2024/03/30 07:42:24;;;;;;;16.42;3.58;;;;;;;;;;5073679;28;20061;-68
2024/03/30 07:44:50;;;;;;;26.27;4.72;;;;;;;;;;5056169;28;20055;-67
2024/03/30 07:47:15;;;;;;;15.45;4.82;;;;;;;;;;5076970;28;20105;-68
2024/03/30 07:49:41;;;;;;;20.42;3.90;;;;;;;;;;5075507;28;20039;-69
2024/03/30 07:52:06;;;;;;;24.40;4.82;;;;;;;;;;5093945;28;20035;-70
2024/03/30 07:54:32;;;;;;;18.58;4.15;;;;;;;;;;5093787;28;20386;-70
2024/03/30 07:56:59;;;;;;;28.55;4.80;;;;;;;;;;5094031;28;20028;-68
2024/03/30 07:59:25;;;;;;;19.42;5.75;;;;;;;;;;5075121;28;20028;-70
2024/03/30 08:01:52;;;;;;;14.57;4.15;;;;;;;;;;5093788;28;20105;-71
2024/03/30 08:04:18;;;;;;;23.52;4.88;;;;;;;;;;5093670;28;20059;-70
2024/03/30 08:06:45;;;;;;;20.90;4.47;;;;;;;;;;5075510;28;20035;-70
2024/03/30 08:09:11;;;;;;;20.23;5.95;;;;;;;;;;5075311;28;20024;-70
2024/03/30 08:11:38;;;;;;;26.70;5.85;;;;;;;;;;5075540;28;20028;-71
2024/03/30 08:14:04;;;;;;;24.00;4.82;;;;;;;;;;5093790;28;20020;-70
2024/03/30 08:16:31;;;;;;;29.40;5.07;;;;;;;;;;5075284;28;20027;-70
2024/03/30 08:18:58;;;;;;;32.35;5.50;;;;;;;;;;5075231;28;20050;-69
2024/03/30 08:21:24;;;;;;;25.98;5.20;;;;;;;;;;5075128;28;20787;-69
2024/03/30 08:23:52;;;;;;;18.25;4.22;;;;;;;;;;5093707;28;20020;-70
2024/03/30 08:26:18;;;;;;;18.55;4.30;;;;;;;;;;5094238;28;20024;-68
2024/03/30 08:28:46;;;;;;;30.98;4.80;;;;;;;;;;5093964;28;20120;-69
2024/03/30 08:31:13;;;;;;;21.02;4.55;;;;;;;;;;5075868;28;20020;-68
2024/03/30 08:33:40;;;;;;;22.17;5.60;;;;;;;;;;5058125;28;20357;-69
2024/03/30 08:36:07;;;;;;;23.42;4.93;;;;;;;;;;5078820;28;20081;-68
2024/03/30 08:38:33;;;;;;;26.17;5.07;;;;;;;;;;5059495;28;20111;-71
2024/03/30 08:40:59;;;;;;;26.23;5.15;;;;;;;;;;5093138;28;20043;-69
2024/03/30 08:43:27;;;;;;;23.60;5.97;;;;;;;;;;5073487;28;20020;-72
2024/03/30 08:45:53;;;;;;;61.05;8.52;;;;;;;;;;5093119;28;20024;-69
2024/03/30 08:48:19;;;;;;;31.73;5.70;;;;;;;;;;5074711;28;20016;-69
2024/03/30 08:50:46;;;;;;;34.65;6.20;;;;;;;;;;5074779;28;20054;-69
2024/03/30 08:53:12;;;;;;;27.42;4.75;;;;;;;;;;5074295;28;20123;-69
2024/03/30 08:55:38;;;;;;;33.92;5.38;;;;;;;;;;5068354;28;20479;-72
2024/03/30 08:58:06;;;;;;;19.38;4.22;;;;;;;;;;5057974;28;20028;-70
2024/03/30 09:00:36;;;;;;;42.05;7.28;;;;;;;;;;5058193;28;20036;-71
2024/03/30 09:03:02;;;;;;;32.17;4.95;;;;;;;;;;5074913;28;20089;-72
2024/03/30 09:05:32;;;;;;;38.22;6.03;;;;;;;;;;5092522;28;20028;-70
2024/03/30 09:07:58;;;;;;;33.40;7.40;;;;;;;;;;5074429;28;20114;-68
2024/03/30 09:10:25;;;;;;;33.40;4.75;;;;;;;;;;5074123;28;20111;-71
2024/03/30 09:12:51;;;;;;;30.00;4.85;;;;;;;;;;5091952;28;20020;-70
2024/03/30 09:15:19;;;;;;;36.67;5.57;;;;;;;;;;5073888;28;20141;-72
2024/03/30 09:17:45;;;;;;;38.60;7.80;;;;;;;;;;5073904;28;20455;-69
2024/03/30 09:20:10;;;;;;;32.88;4.97;;;;;;;;;;5073822;28;20035;-72
2024/03/30 09:22:37;;;;;;;51.08;6.65;;;;;;;;;;5092046;28;20032;-69
2024/03/30 09:25:07;;;;;;;44.08;8.75;;;;;;;;;;5092379;28;20024;-70
2024/03/30 09:27:34;;;;;;;47.53;8.00;;;;;;;;;;5073945;28;20058;-71
2024/03/30 09:30:01;;;;;;;56.53;6.45;;;;;;;;;;5074049;28;20043;-70
2024/03/30 09:32:28;;;;;;;51.00;6.93;;;;;;;;;;5075810;28;20487;-69
2024/03/30 09:34:53;;;;;;;37.25;6.20;;;;;;;;;;5095007;28;20032;-69
2024/03/30 09:37:19;;;;;;;43.47;6.20;;;;;;;;;;5075979;28;20023;-69
2024/03/30 09:39:44;;;;;;;39.97;6.55;;;;;;;;;;5075893;28;20028;-68
2024/03/30 09:42:24;;;;;;;44.05;7.05;;;;;;;;;;5076404;28;20372;-69
2024/03/30 09:44:49;;;;;;;49.70;8.13;;;;;;;;;;5093888;28;20051;-69
2024/03/30 09:47:15;;;;;;;49.25;5.40;;;;;;;;;;5093872;28;20020;-69
2024/03/30 09:49:44;;;;;;;46.55;6.82;;;;;;;;;;5076031;28;20028;-70
2024/03/30 09:52:13;;;;;;;53.22;6.70;;;;;;;;;;5076696;28;20032;-68
2024/03/30 09:54:39;;;;;;;52.92;8.50;;;;;;;;;;5093597;28;20459;-69
2024/03/30 09:57:05;;;;;;;50.45;6.57;;;;;;;;;;5092054;28;20512;-69
2024/03/30 09:59:31;;;;;;;55.97;6.47;;;;;;;;;;5091760;28;20028;-69
2024/03/30 10:01:57;;;;;;;59.58;8.02;;;;;;;;;;5057149;28;20089;-69
2024/03/30 10:04:22;;;;;;;58.00;7.72;;;;;;;;;;5073670;28;20032;-69
2024/03/30 10:06:55;;;;;;;42.97;9.05;;;;;;;;;;5073264;28;20028;-70
2024/03/30 10:09:25;;;;;;;52.63;7.25;;;;;;;;;;5073704;28;20043;-70
2024/03/30 10:11:58;;;;;;;69.68;10.95;;;;;;;;;;5073460;28;20024;-70
2024/03/30 10:14:30;;;;;;;57.03;7.95;;;;;;;;;;5092940;28;20032;-69
2024/03/30 10:16:59;;;;;;;55.17;7.20;;;;;;;;;;5092693;28;20152;-69
2024/03/30 10:19:25;;;;;;;57.50;8.68;;;;;;;;;;5074176;28;20024;-70
2024/03/30 10:21:52;;;;;;;51.55;7.63;;;;;;;;;;5092136;28;20093;-69
2024/03/30 10:24:18;;;;;;;60.38;8.50;;;;;;;;;;5073839;28;20027;-70
2024/03/30 10:26:44;;;;;;;56.75;7.82;;;;;;;;;;5092381;28;20111;-70
2024/03/30 10:29:10;;;;;;;61.90;7.78;;;;;;;;;;5057679;28;20089;-71
2024/03/30 10:31:43;;;;;;;51.63;8.00;;;;;;;;;;5092488;28;20103;-69
2024/03/30 10:34:09;;;;;;;63.75;8.98;;;;;;;;;;5073791;28;20131;-70
2024/03/30 10:36:38;;;;;;;55.83;8.60;;;;;;;;;;5056913;28;20035;-68
2024/03/30 10:39:04;;;;;;;70.65;9.00;;;;;;;;;;5092367;28;20024;-70
2024/03/30 10:41:30;;;;;;;58.20;8.45;;;;;;;;;;5092180;28;20072;-72
2024/03/30 10:43:56;;;;;;;66.00;8.18;;;;;;;;;;5057831;28;20040;-69
2024/03/30 10:46:26;;;;;;;66.30;8.50;;;;;;;;;;5092533;28;20471;-69
2024/03/30 10:48:52;;;;;;;60.08;7.35;;;;;;;;;;5073774;28;20028;-70
2024/03/30 10:51:23;;;;;;;52.03;8.10;;;;;;;;;;5074107;28;20036;-70
2024/03/30 10:53:50;;;;;;;63.42;8.27;;;;;;;;;;5092195;28;20024;-69
2024/03/30 10:56:16;;;;;;;64.97;8.75;;;;;;;;;;5092308;28;20042;-68
2024/03/30 10:58:47;;;;;;;50.22;8.82;;;;;;;;;;5073820;28;20043;-70
2024/03/30 11:01:14;;;;;;;58.33;6.88;;;;;;;;;;5074163;28;20028;-69
2024/03/30 11:03:41;;;;;;;52.47;7.53;;;;;;;;;;5073885;28;20024;-68
2024/03/30 11:06:07;;;;;;;59.72;8.07;;;;;;;;;;5073374;28;20127;-69
2024/03/30 11:08:36;;;;;;;47.90;8.57;;;;;;;;;;5074506;28;20024;-69
2024/03/30 11:11:02;;;;;;;71.43;10.05;;;;;;;;;;5074629;28;20054;-69
2024/03/30 11:13:28;;;;;;;65.38;8.40;;;;;;;;;;5069487;28;20024;-70
2024/03/30 11:16:00;;;;;;;52.60;8.02;;;;;;;;;;5070504;28;20127;-71
2024/03/30 11:18:38;;;;;;;44.40;5.82;;;;;;;;;;5080379;28;20028;-69
2024/03/30 11:21:33;;;;;;;48.38;6.28;;;;;;;;;;5070248;28;20069;-70
2024/03/30 11:24:03;;;;;;;53.75;7.35;;;;;;;;;;5068702;28;20484;-69
2024/03/30 11:26:32;;;;;;;57.25;6.72;;;;;;;;;;5071020;28;20054;-69
2024/03/30 11:29:27;;;;;;;56.42;7.70;;;;;;;;;;5070550;28;20028;-69
2024/03/30 11:32:07;;;;;;;51.35;7.30;;;;;;;;;;5051804;28;20145;-70
2024/03/30 11:34:54;;;;;;;54.47;7.22;;;;;;;;;;5070857;28;20029;-69
2024/03/30 11:37:29;;;;;;;61.58;8.02;;;;;;;;;;5073404;28;20020;-69
2024/03/30 11:40:27;;;;;;;48.83;7.57;;;;;;;;;;5072997;28;20032;-70
2024/03/30 11:43:16;;;;;;;49.03;7.30;;;;;;;;;;5071368;28;20048;-68
2024/03/30 11:45:43;;;;;;;42.45;6.00;;;;;;;;;;5071323;28;20447;-70
2024/03/30 11:48:10;;;;;;;40.25;6.07;;;;;;;;;;5079664;28;20094;-70
2024/03/30 11:50:36;;;;;;;63.33;6.03;;;;;;;;;;5072758;28;20035;-69
2024/03/30 11:53:02;;;;;;;53.15;5.50;;;;;;;;;;5073141;28;20032;-70
2024/03/30 11:55:31;;;;;;;55.33;6.03;;;;;;;;;;5091064;28;20628;-69
2024/03/30 11:57:59;;;;;;;47.88;6.00;;;;;;;;;;5073515;28;20089;-70
2024/03/30 12:00:28;;;;;;;50.30;6.03;;;;;;;;;;5091012;28;20032;-71
2024/03/30 12:03:20;;;;;;;52.35;5.90;;;;;;;;;;5071700;28;20031;-69
2024/03/30 12:05:54;;;;;;;37.85;5.03;;;;;;;;;;5069164;28;20094;-70
2024/03/30 12:08:28;;;;;;;45.97;5.53;;;;;;;;;;5073694;28;20028;-70
2024/03/30 12:10:58;;;;;;;51.97;6.68;;;;;;;;;;5055460;28;20050;-70
2024/03/30 12:13:37;;;;;;;51.10;5.70;;;;;;;;;;5090525;28;20024;-71
2024/03/30 12:16:03;;;;;;;37.13;4.93;;;;;;;;;;5090374;28;20047;-70
2024/03/30 12:18:29;;;;;;;35.38;5.00;;;;;;;;;;5093856;28;20114;-69
2024/03/30 12:20:55;;;;;;;49.22;6.40;;;;;;;;;;5058934;28;20547;-70
2024/03/30 12:23:22;;;;;;;42.85;5.78;;;;;;;;;;5075986;28;20024;-69
2024/03/30 12:25:49;;;;;;;46.78;6.18;;;;;;;;;;5093527;28;20023;-69
2024/03/30 12:28:15;;;;;;;50.50;5.85;;;;;;;;;;5093776;28;20028;-69
2024/03/30 12:30:46;;;;;;;41.55;5.43;;;;;;;;;;5094345;28;20039;-71
2024/03/30 12:33:13;;;;;;;32.70;4.85;;;;;;;;;;5076263;28;20043;-72
2024/03/30 12:35:39;;;;;;;51.30;6.85;;;;;;;;;;5076565;28;20139;-71
2024/03/30 12:38:06;;;;;;;40.90;5.15;;;;;;;;;;5094573;28;20081;-71
2024/03/30 12:40:33;;;;;;;34.15;4.50;;;;;;;;;;5094566;28;20456;-72
2024/03/30 12:42:59;;;;;;;33.95;4.35;;;;;;;;;;5064389;28;20028;-70
2024/03/30 12:45:25;;;;;;;31.05;4.45;;;;;;;;;;5075661;28;20012;-72
2024/03/30 12:47:51;;;;;;;41.42;4.63;;;;;;;;;;5058063;28;20032;-70
2024/03/30 12:50:17;;;;;;;27.63;4.85;;;;;;;;;;5093534;28;20020;-68
2024/03/30 12:52:43;;;;;;;40.38;6.35;;;;;;;;;;5093574;28;20035;-70
2024/03/30 12:55:09;;;;;;;31.20;4.10;;;;;;;;;;5075265;28;20425;-69
2024/03/30 12:57:35;;;;;;;36.90;4.65;;;;;;;;;;5075560;28;20077;-69
2024/03/30 13:00:06;;;;;;;38.60;5.05;;;;;;;;;;5094142;28;20050;-69
2024/03/30 13:02:33;;;;;;;44.70;4.53;;;;;;;;;;5076239;28;20151;-69
2024/03/30 13:05:08;;;;;;;38.53;5.13;;;;;;;;;;5093804;28;20027;-70
2024/03/30 13:07:33;;;;;;;45.60;4.63;;;;;;;;;;5076422;28;20024;-69
2024/03/30 13:10:11;;;;;;;41.95;5.30;;;;;;;;;;5093699;28;20392;-71
2024/03/30 13:12:37;;;;;;;45.90;4.57;;;;;;;;;;5075101;28;20123;-72
2024/03/30 13:15:06;;;;;;;41.55;6.28;;;;;;;;;;5074539;28;20206;-68
2024/03/30 13:17:31;;;;;;;38.38;4.30;;;;;;;;;;5074450;28;20882;-70
2024/03/30 13:19:59;;;;;;;35.45;4.30;;;;;;;;;;5092295;28;20024;-70
2024/03/30 13:22:25;;;;;;;38.80;4.72;;;;;;;;;;5092802;28;20042;-70
2024/03/30 13:24:50;;;;;;;44.42;4.68;;;;;;;;;;5092860;28;20440;-70
2024/03/30 13:27:16;;;;;;;36.65;5.65;;;;;;;;;;5092165;28;20448;-69
2024/03/30 13:29:42;;;;;;;44.83;6.45;;;;;;;;;;5091779;28;20092;-70
2024/03/30 13:32:07;;;;;;;41.13;6.57;;;;;;;;;;5074268;28;20028;-70
2024/03/30 13:34:34;;;;;;;33.00;4.32;;;;;;;;;;5092514;28;20549;-69
2024/03/30 13:37:00;;;;;;;30.38;5.63;;;;;;;;;;5092078;28;20475;-68
2024/03/30 13:39:26;;;;;;;45.30;8.98;;;;;;;;;;5092245;28;20036;-70
2024/03/30 13:41:52;;;;;;;34.10;4.53;;;;;;;;;;5092271;28;20043;-68
2024/03/30 13:44:17;;;;;;;41.28;5.35;;;;;;;;;;5092366;28;20349;-70
2024/03/30 13:46:43;;;;;;;39.45;4.63;;;;;;;;;;5073870;28;20035;-69
2024/03/30 13:49:08;;;;;;;34.63;4.80;;;;;;;;;;5092019;28;20440;-70
2024/03/30 13:51:36;;;;;;;43.45;6.28;;;;;;;;;;5073696;28;20024;-71
2024/03/30 13:54:01;;;;;;;41.35;4.13;;;;;;;;;;5092248;28;20039;-69
2024/03/30 13:56:27;;;;;;;30.63;4.72;;;;;;;;;;5073748;28;20028;-69
2024/03/30 13:58:53;;;;;;;30.65;4.55;;;;;;;;;;5091475;28;20039;-70
2024/03/30 14:01:19;;;;;;;39.95;3.95;;;;;;;;;;5091694;28;20425;-70
2024/03/30 14:03:45;;;;;;;27.25;3.83;;;;;;;;;;5091633;28;20471;-69
2024/03/30 14:06:10;;;;;;;27.55;4.40;;;;;;;;;;5073009;28;20051;-69
2024/03/30 14:08:36;;;;;;;33.00;4.43;;;;;;;;;;5072820;28;20032;-69
2024/03/30 14:11:02;;;;;;;29.23;4.45;;;;;;;;;;5090823;28;20035;-69
2024/03/30 14:13:28;;;;;;;38.58;6.15;;;;;;;;;;5090969;28;20176;-69
2024/03/30 14:15:54;;;;;;;32.83;4.35;;;;;;;;;;5072902;28;20022;-71
2024/03/30 14:18:19;;;;;;;39.97;5.00;;;;;;;;;;5073528;28;20134;-71
2024/03/30 14:20:45;;;;;;;36.88;5.43;;;;;;;;;;5092083;28;20406;-69
2024/03/30 14:23:10;;;;;;;30.52;3.90;;;;;;;;;;5073192;28;20441;-71
2024/03/30 14:25:37;;;;;;;33.65;4.13;;;;;;;;;;5091129;28;20065;-70
2024/03/30 14:28:03;;;;;;;38.45;4.57;;;;;;;;;;5091016;28;20020;-69
2024/03/30 14:30:29;;;;;;;35.60;4.72;;;;;;;;;;5091188;28;20434;-69
2024/03/30 14:32:54;;;;;;;36.17;4.38;;;;;;;;;;5090579;28;20030;-71